sensor_id;sensor_type;location;lat;lon;timestamp;temperature;humidity
20492;DHT22;10404;51.468;6.762;2023-06-26T00:01:58;29.90;41.20
20492;DHT22;10404;51.468;6.762;2023-06-26T00:04:23;29.90;41.20
20492;DHT22;10404;51.468;6.762;2023-06-26T00:06:49;29.80;41.30
20492;DHT22;10404;51.468;6.762;2023-06-26T00:09:15;29.70;41.30
20492;DHT22;10404;51.468;6.762;2023-06-26T00:11:40;29.70;41.30
20492;DHT22;10404;51.468;6.762;2023-06-26T00:14:06;29.70;41.50
20492;DHT22;10404;51.468;6.762;2023-06-26T00:16:32;29.60;41.40
20492;DHT22;10404;51.468;6.762;2023-06-26T00:18:57;29.50;41.50
20492;DHT22;10404;51.468;6.762;2023-06-26T00:21:24;29.50;41.50
20492;DHT22;10404;51.468;6.762;2023-06-26T00:23:51;29.50;41.60
20492;DHT22;10404;51.468;6.762;2023-06-26T00:26:16;29.40;41.60
20492;DHT22;10404;51.468;6.762;2023-06-26T00:28:42;29.40;41.70
20492;DHT22;10404;51.468;6.762;2023-06-26T00:31:08;29.30;41.80
20492;DHT22;10404;51.468;6.762;2023-06-26T00:33:33;29.30;41.90
20492;DHT22;10404;51.468;6.762;2023-06-26T00:35:59;29.20;41.90
20492;DHT22;10404;51.468;6.762;2023-06-26T00:38:25;29.20;41.90
20492;DHT22;10404;51.468;6.762;2023-06-26T00:40:50;29.10;42.00
20492;DHT22;10404;51.468;6.762;2023-06-26T00:43:16;29.10;42.00
20492;DHT22;10404;51.468;6.762;2023-06-26T00:45:41;29.00;42.00
20492;DHT22;10404;51.468;6.762;2023-06-26T00:48:09;29.00;42.10
20492;DHT22;10404;51.468;6.762;2023-06-26T00:50:37;28.90;42.10
20492;DHT22;10404;51.468;6.762;2023-06-26T00:53:03;28.90;42.20
20492;DHT22;10404;51.468;6.762;2023-06-26T00:55:29;28.90;42.30
20492;DHT22;10404;51.468;6.762;2023-06-26T00:57:55;28.90;42.30
20492;DHT22;10404;51.468;6.762;2023-06-26T01:00:21;28.80;42.40
20492;DHT22;10404;51.468;6.762;2023-06-26T01:02:47;28.70;42.40
20492;DHT22;10404;51.468;6.762;2023-06-26T01:05:13;28.70;42.50
20492;DHT22;10404;51.468;6.762;2023-06-26T01:07:44;28.60;42.50
20492;DHT22;10404;51.468;6.762;2023-06-26T01:10:10;28.60;42.50
20492;DHT22;10404;51.468;6.762;2023-06-26T01:12:36;28.50;42.50
20492;DHT22;10404;51.468;6.762;2023-06-26T01:15:04;28.50;42.60
20492;DHT22;10404;51.468;6.762;2023-06-26T01:17:30;28.50;42.70
20492;DHT22;10404;51.468;6.762;2023-06-26T01:19:59;28.50;42.70
20492;DHT22;10404;51.468;6.762;2023-06-26T01:22:34;28.40;42.70
20492;DHT22;10404;51.468;6.762;2023-06-26T01:27:57;28.30;42.90
20492;DHT22;10404;51.468;6.762;2023-06-26T01:30:24;28.30;42.90
20492;DHT22;10404;51.468;6.762;2023-06-26T01:32:50;28.20;43.00
20492;DHT22;10404;51.468;6.762;2023-06-26T01:35:17;28.20;43.00
20492;DHT22;10404;51.468;6.762;2023-06-26T01:37:43;28.10;43.00
20492;DHT22;10404;51.468;6.762;2023-06-26T01:40:09;28.10;43.00
20492;DHT22;10404;51.468;6.762;2023-06-26T01:42:35;28.10;43.10
20492;DHT22;10404;51.468;6.762;2023-06-26T01:45:11;28.00;43.00
20492;DHT22;10404;51.468;6.762;2023-06-26T01:47:41;28.00;43.10
20492;DHT22;10404;51.468;6.762;2023-06-26T01:50:15;28.00;43.20
20492;DHT22;10404;51.468;6.762;2023-06-26T01:55:46;27.80;43.20
20492;DHT22;10404;51.468;6.762;2023-06-26T01:58:13;27.80;43.20
20492;DHT22;10404;51.468;6.762;2023-06-26T02:00:40;27.80;43.20
20492;DHT22;10404;51.468;6.762;2023-06-26T02:03:05;27.70;43.30
20492;DHT22;10404;51.468;6.762;2023-06-26T02:05:32;27.70;43.30
20492;DHT22;10404;51.468;6.762;2023-06-26T02:07:58;27.60;43.40
20492;DHT22;10404;51.468;6.762;2023-06-26T02:10:24;27.50;43.40
20492;DHT22;10404;51.468;6.762;2023-06-26T02:12:49;27.50;43.40
20492;DHT22;10404;51.468;6.762;2023-06-26T02:15:15;27.50;43.50
20492;DHT22;10404;51.468;6.762;2023-06-26T02:17:40;27.50;43.50
20492;DHT22;10404;51.468;6.762;2023-06-26T02:20:06;27.40;43.50
20492;DHT22;10404;51.468;6.762;2023-06-26T02:22:34;27.40;43.60
20492;DHT22;10404;51.468;6.762;2023-06-26T02:24:59;27.30;43.60
20492;DHT22;10404;51.468;6.762;2023-06-26T02:27:25;27.30;43.70
20492;DHT22;10404;51.468;6.762;2023-06-26T02:29:50;27.30;43.70
20492;DHT22;10404;51.468;6.762;2023-06-26T02:32:16;27.20;43.80
20492;DHT22;10404;51.468;6.762;2023-06-26T02:34:42;27.20;43.90
20492;DHT22;10404;51.468;6.762;2023-06-26T02:37:07;27.10;43.90
20492;DHT22;10404;51.468;6.762;2023-06-26T02:39:34;27.10;44.00
20492;DHT22;10404;51.468;6.762;2023-06-26T02:42:00;27.10;44.00
20492;DHT22;10404;51.468;6.762;2023-06-26T02:44:25;27.00;44.00
20492;DHT22;10404;51.468;6.762;2023-06-26T02:46:51;27.00;44.10
20492;DHT22;10404;51.468;6.762;2023-06-26T02:49:16;26.90;44.20
20492;DHT22;10404;51.468;6.762;2023-06-26T02:51:42;26.90;44.20
20492;DHT22;10404;51.468;6.762;2023-06-26T02:54:08;26.90;44.20
20492;DHT22;10404;51.468;6.762;2023-06-26T02:56:33;26.80;44.30
20492;DHT22;10404;51.468;6.762;2023-06-26T02:58:59;26.80;44.30
20492;DHT22;10404;51.468;6.762;2023-06-26T03:01:25;26.70;44.40
20492;DHT22;10404;51.468;6.762;2023-06-26T03:03:50;26.70;44.50
20492;DHT22;10404;51.468;6.762;2023-06-26T03:06:16;26.70;44.50
20492;DHT22;10404;51.468;6.762;2023-06-26T03:08:42;26.60;44.60
20492;DHT22;10404;51.468;6.762;2023-06-26T03:11:08;26.60;44.70
20492;DHT22;10404;51.468;6.762;2023-06-26T03:13:35;26.50;44.70
20492;DHT22;10404;51.468;6.762;2023-06-26T03:16:01;26.50;44.70
20492;DHT22;10404;51.468;6.762;2023-06-26T03:18:27;26.40;44.80
20492;DHT22;10404;51.468;6.762;2023-06-26T03:20:53;26.40;44.90
20492;DHT22;10404;51.468;6.762;2023-06-26T03:23:20;26.40;44.90
20492;DHT22;10404;51.468;6.762;2023-06-26T03:25:46;26.40;45.10
20492;DHT22;10404;51.468;6.762;2023-06-26T03:28:11;26.40;45.10
20492;DHT22;10404;51.468;6.762;2023-06-26T03:30:37;26.30;45.30
20492;DHT22;10404;51.468;6.762;2023-06-26T03:33:03;26.20;45.40
20492;DHT22;10404;51.468;6.762;2023-06-26T03:35:29;26.20;45.40
20492;DHT22;10404;51.468;6.762;2023-06-26T03:37:54;26.10;45.50
20492;DHT22;10404;51.468;6.762;2023-06-26T03:40:20;26.10;45.50
20492;DHT22;10404;51.468;6.762;2023-06-26T03:42:45;26.10;45.70
20492;DHT22;10404;51.468;6.762;2023-06-26T03:45:11;26.00;45.70
20492;DHT22;10404;51.468;6.762;2023-06-26T03:47:37;26.00;45.70
20492;DHT22;10404;51.468;6.762;2023-06-26T03:50:03;26.00;45.80
20492;DHT22;10404;51.468;6.762;2023-06-26T03:52:28;26.00;45.90
20492;DHT22;10404;51.468;6.762;2023-06-26T03:54:59;26.00;45.90
20492;DHT22;10404;51.468;6.762;2023-06-26T03:57:25;26.00;46.00
20492;DHT22;10404;51.468;6.762;2023-06-26T03:59:52;25.90;46.00
20492;DHT22;10404;51.468;6.762;2023-06-26T04:02:17;25.80;46.20
20492;DHT22;10404;51.468;6.762;2023-06-26T04:04:44;25.80;46.20
20492;DHT22;10404;51.468;6.762;2023-06-26T04:07:10;25.80;46.30
20492;DHT22;10404;51.468;6.762;2023-06-26T04:09:36;25.80;46.40
20492;DHT22;10404;51.468;6.762;2023-06-26T04:12:02;25.70;46.50
20492;DHT22;10404;51.468;6.762;2023-06-26T04:14:28;25.70;46.50
20492;DHT22;10404;51.468;6.762;2023-06-26T04:16:53;25.60;46.60
20492;DHT22;10404;51.468;6.762;2023-06-26T04:19:19;25.60;46.70
20492;DHT22;10404;51.468;6.762;2023-06-26T04:21:45;25.60;46.70
20492;DHT22;10404;51.468;6.762;2023-06-26T04:24:10;25.60;46.70
20492;DHT22;10404;51.468;6.762;2023-06-26T04:26:36;25.60;46.70
20492;DHT22;10404;51.468;6.762;2023-06-26T04:29:02;25.50;46.70
20492;DHT22;10404;51.468;6.762;2023-06-26T04:31:28;25.50;46.80
20492;DHT22;10404;51.468;6.762;2023-06-26T04:33:54;25.50;46.80
20492;DHT22;10404;51.468;6.762;2023-06-26T04:36:20;25.50;46.90
20492;DHT22;10404;51.468;6.762;2023-06-26T04:38:46;25.40;46.90
20492;DHT22;10404;51.468;6.762;2023-06-26T04:41:13;25.40;46.90
20492;DHT22;10404;51.468;6.762;2023-06-26T04:43:39;25.40;46.90
20492;DHT22;10404;51.468;6.762;2023-06-26T04:46:05;25.40;46.80
20492;DHT22;10404;51.468;6.762;2023-06-26T04:48:32;25.40;46.80
20492;DHT22;10404;51.468;6.762;2023-06-26T04:50:57;25.40;46.80
20492;DHT22;10404;51.468;6.762;2023-06-26T04:53:24;25.40;46.70
20492;DHT22;10404;51.468;6.762;2023-06-26T04:55:51;25.40;46.70
20492;DHT22;10404;51.468;6.762;2023-06-26T04:58:17;25.40;46.70
20492;DHT22;10404;51.468;6.762;2023-06-26T05:00:43;25.40;46.70
20492;DHT22;10404;51.468;6.762;2023-06-26T05:03:11;25.40;46.70
20492;DHT22;10404;51.468;6.762;2023-06-26T05:05:37;25.40;46.70
20492;DHT22;10404;51.468;6.762;2023-06-26T05:08:22;25.40;46.80
20492;DHT22;10404;51.468;6.762;2023-06-26T05:10:48;25.40;46.80
20492;DHT22;10404;51.468;6.762;2023-06-26T05:13:14;25.30;46.80
20492;DHT22;10404;51.468;6.762;2023-06-26T05:15:45;25.30;46.90
20492;DHT22;10404;51.468;6.762;2023-06-26T05:18:11;25.30;47.20
20492;DHT22;10404;51.468;6.762;2023-06-26T05:20:37;25.30;47.20
20492;DHT22;10404;51.468;6.762;2023-06-26T05:23:04;25.30;47.20
20492;DHT22;10404;51.468;6.762;2023-06-26T05:25:31;25.30;47.30
20492;DHT22;10404;51.468;6.762;2023-06-26T05:27:57;25.30;47.50
20492;DHT22;10404;51.468;6.762;2023-06-26T05:30:27;25.20;47.70
20492;DHT22;10404;51.468;6.762;2023-06-26T05:32:53;25.20;47.70
20492;DHT22;10404;51.468;6.762;2023-06-26T05:35:22;25.20;47.70
20492;DHT22;10404;51.468;6.762;2023-06-26T05:37:49;25.20;47.80
20492;DHT22;10404;51.468;6.762;2023-06-26T05:40:16;25.20;47.80
20492;DHT22;10404;51.468;6.762;2023-06-26T05:42:42;25.20;47.80
20492;DHT22;10404;51.468;6.762;2023-06-26T05:45:09;25.20;47.90
20492;DHT22;10404;51.468;6.762;2023-06-26T05:47:35;25.20;48.10
20492;DHT22;10404;51.468;6.762;2023-06-26T05:50:01;25.20;47.90
20492;DHT22;10404;51.468;6.762;2023-06-26T05:52:27;25.30;48.00
20492;DHT22;10404;51.468;6.762;2023-06-26T05:54:53;25.30;47.90
20492;DHT22;10404;51.468;6.762;2023-06-26T05:57:20;25.30;48.00
20492;DHT22;10404;51.468;6.762;2023-06-26T05:59:46;25.30;48.20
20492;DHT22;10404;51.468;6.762;2023-06-26T06:02:12;25.30;48.20
20492;DHT22;10404;51.468;6.762;2023-06-26T06:04:38;25.20;48.30
20492;DHT22;10404;51.468;6.762;2023-06-26T06:07:04;25.20;48.30
20492;DHT22;10404;51.468;6.762;2023-06-26T06:09:30;25.20;48.40
20492;DHT22;10404;51.468;6.762;2023-06-26T06:11:56;25.20;48.50
20492;DHT22;10404;51.468;6.762;2023-06-26T06:14:21;25.20;48.30
20492;DHT22;10404;51.468;6.762;2023-06-26T06:16:47;25.20;48.40
20492;DHT22;10404;51.468;6.762;2023-06-26T06:19:12;25.30;48.30
20492;DHT22;10404;51.468;6.762;2023-06-26T06:21:39;25.30;48.40
20492;DHT22;10404;51.468;6.762;2023-06-26T06:24:05;25.20;48.50
20492;DHT22;10404;51.468;6.762;2023-06-26T06:26:32;25.20;48.50
20492;DHT22;10404;51.468;6.762;2023-06-26T06:28:58;25.20;48.40
20492;DHT22;10404;51.468;6.762;2023-06-26T06:31:23;25.30;48.70
20492;DHT22;10404;51.468;6.762;2023-06-26T06:33:49;25.40;48.40
20492;DHT22;10404;51.468;6.762;2023-06-26T06:36:15;25.50;48.40
20492;DHT22;10404;51.468;6.762;2023-06-26T06:38:43;25.60;48.20
20492;DHT22;10404;51.468;6.762;2023-06-26T06:41:09;25.60;48.30
20492;DHT22;10404;51.468;6.762;2023-06-26T06:43:35;25.60;48.50
20492;DHT22;10404;51.468;6.762;2023-06-26T06:46:01;25.80;48.30
20492;DHT22;10404;51.468;6.762;2023-06-26T06:48:27;25.80;48.20
20492;DHT22;10404;51.468;6.762;2023-06-26T06:50:52;25.90;48.00
20492;DHT22;10404;51.468;6.762;2023-06-26T06:53:18;25.90;48.20
20492;DHT22;10404;51.468;6.762;2023-06-26T06:55:51;25.80;48.40
20492;DHT22;10404;51.468;6.762;2023-06-26T06:58:17;25.80;48.60
20492;DHT22;10404;51.468;6.762;2023-06-26T07:00:44;25.80;48.70
20492;DHT22;10404;51.468;6.762;2023-06-26T07:03:10;25.90;48.70
20492;DHT22;10404;51.468;6.762;2023-06-26T07:05:36;25.90;48.60
20492;DHT22;10404;51.468;6.762;2023-06-26T07:08:02;25.80;48.60
20492;DHT22;10404;51.468;6.762;2023-06-26T07:10:29;25.80;49.00
20492;DHT22;10404;51.468;6.762;2023-06-26T07:12:54;25.80;49.10
20492;DHT22;10404;51.468;6.762;2023-06-26T07:15:20;25.80;49.30
20492;DHT22;10404;51.468;6.762;2023-06-26T07:17:46;25.80;49.00
20492;DHT22;10404;51.468;6.762;2023-06-26T07:20:11;25.90;49.00
20492;DHT22;10404;51.468;6.762;2023-06-26T07:22:41;26.00;48.90
20492;DHT22;10404;51.468;6.762;2023-06-26T07:25:07;26.00;48.80
20492;DHT22;10404;51.468;6.762;2023-06-26T07:27:39;26.20;48.70
20492;DHT22;10404;51.468;6.762;2023-06-26T07:30:06;26.20;48.40
20492;DHT22;10404;51.468;6.762;2023-06-26T07:32:34;26.40;48.40
20492;DHT22;10404;51.468;6.762;2023-06-26T07:35:00;26.50;48.20
20492;DHT22;10404;51.468;6.762;2023-06-26T07:37:25;26.50;48.10
20492;DHT22;10404;51.468;6.762;2023-06-26T07:39:51;26.50;48.10
20492;DHT22;10404;51.468;6.762;2023-06-26T07:42:16;26.50;48.10
20492;DHT22;10404;51.468;6.762;2023-06-26T07:44:42;26.50;48.30
20492;DHT22;10404;51.468;6.762;2023-06-26T07:47:08;26.50;48.30
20492;DHT22;10404;51.468;6.762;2023-06-26T07:49:34;26.50;48.30
20492;DHT22;10404;51.468;6.762;2023-06-26T07:52:00;26.50;48.30
20492;DHT22;10404;51.468;6.762;2023-06-26T07:54:26;26.60;48.30
20492;DHT22;10404;51.468;6.762;2023-06-26T07:56:59;26.70;48.20
20492;DHT22;10404;51.468;6.762;2023-06-26T07:59:27;26.80;48.10
20492;DHT22;10404;51.468;6.762;2023-06-26T08:01:54;26.90;48.00
20492;DHT22;10404;51.468;6.762;2023-06-26T08:04:21;26.80;48.20
20492;DHT22;10404;51.468;6.762;2023-06-26T08:06:51;26.80;48.20
20492;DHT22;10404;51.468;6.762;2023-06-26T08:09:18;26.80;48.30
20492;DHT22;10404;51.468;6.762;2023-06-26T08:11:45;26.80;48.20
20492;DHT22;10404;51.468;6.762;2023-06-26T08:14:11;26.80;48.30
20492;DHT22;10404;51.468;6.762;2023-06-26T08:16:38;26.80;48.20
20492;DHT22;10404;51.468;6.762;2023-06-26T08:19:04;26.80;48.20
20492;DHT22;10404;51.468;6.762;2023-06-26T08:21:30;26.80;48.10
20492;DHT22;10404;51.468;6.762;2023-06-26T08:23:55;26.90;48.10
20492;DHT22;10404;51.468;6.762;2023-06-26T08:26:21;26.90;48.20
20492;DHT22;10404;51.468;6.762;2023-06-26T08:28:46;26.80;48.20
20492;DHT22;10404;51.468;6.762;2023-06-26T08:31:12;26.80;48.00
20492;DHT22;10404;51.468;6.762;2023-06-26T08:33:38;26.90;48.00
20492;DHT22;10404;51.468;6.762;2023-06-26T08:36:03;27.00;47.90
20492;DHT22;10404;51.468;6.762;2023-06-26T08:38:29;27.10;47.80
20492;DHT22;10404;51.468;6.762;2023-06-26T08:40:55;27.10;47.60
20492;DHT22;10404;51.468;6.762;2023-06-26T08:43:20;27.20;47.40
20492;DHT22;10404;51.468;6.762;2023-06-26T08:45:47;27.40;47.20
20492;DHT22;10404;51.468;6.762;2023-06-26T08:48:17;27.50;47.00
20492;DHT22;10404;51.468;6.762;2023-06-26T08:50:43;27.70;46.70
20492;DHT22;10404;51.468;6.762;2023-06-26T08:53:19;27.80;46.50
20492;DHT22;10404;51.468;6.762;2023-06-26T08:55:49;27.80;46.40
20492;DHT22;10404;51.468;6.762;2023-06-26T08:58:17;27.80;46.40
20492;DHT22;10404;51.468;6.762;2023-06-26T09:00:43;27.80;46.50
20492;DHT22;10404;51.468;6.762;2023-06-26T09:03:09;27.90;46.40
20492;DHT22;10404;51.468;6.762;2023-06-26T09:05:35;28.10;46.10
20492;DHT22;10404;51.468;6.762;2023-06-26T09:08:01;28.10;46.10
20492;DHT22;10404;51.468;6.762;2023-06-26T09:10:27;28.10;46.00
20492;DHT22;10404;51.468;6.762;2023-06-26T09:12:55;28.20;45.90
20492;DHT22;10404;51.468;6.762;2023-06-26T09:15:22;28.30;45.90
20492;DHT22;10404;51.468;6.762;2023-06-26T09:17:49;28.40;45.70
20492;DHT22;10404;51.468;6.762;2023-06-26T09:20:14;28.50;45.50
20492;DHT22;10404;51.468;6.762;2023-06-26T09:22:42;28.70;45.40
20492;DHT22;10404;51.468;6.762;2023-06-26T09:25:09;28.90;45.00
20492;DHT22;10404;51.468;6.762;2023-06-26T09:27:35;29.10;44.70
20492;DHT22;10404;51.468;6.762;2023-06-26T09:30:03;29.10;44.70
20492;DHT22;10404;51.468;6.762;2023-06-26T09:32:29;29.10;44.60
20492;DHT22;10404;51.468;6.762;2023-06-26T09:34:55;29.10;44.90
20492;DHT22;10404;51.468;6.762;2023-06-26T09:37:21;29.00;44.80
20492;DHT22;10404;51.468;6.762;2023-06-26T09:39:48;29.00;44.80
20492;DHT22;10404;51.468;6.762;2023-06-26T09:42:14;28.90;44.60
20492;DHT22;10404;51.468;6.762;2023-06-26T09:44:44;29.00;44.60
20492;DHT22;10404;51.468;6.762;2023-06-26T09:47:10;29.20;44.30
20492;DHT22;10404;51.468;6.762;2023-06-26T09:49:36;29.20;43.90
20492;DHT22;10404;51.468;6.762;2023-06-26T09:52:06;29.30;43.70
20492;DHT22;10404;51.468;6.762;2023-06-26T09:54:32;29.40;43.40
20492;DHT22;10404;51.468;6.762;2023-06-26T09:57:15;29.30;43.40
20492;DHT22;10404;51.468;6.762;2023-06-26T09:59:41;29.30;43.40
20492;DHT22;10404;51.468;6.762;2023-06-26T10:02:07;29.30;43.30
20492;DHT22;10404;51.468;6.762;2023-06-26T10:04:34;29.40;43.20
20492;DHT22;10404;51.468;6.762;2023-06-26T10:07:02;29.50;43.20
20492;DHT22;10404;51.468;6.762;2023-06-26T10:09:30;29.50;43.20
20492;DHT22;10404;51.468;6.762;2023-06-26T10:14:33;29.50;43.00
20492;DHT22;10404;51.468;6.762;2023-06-26T10:17:02;29.50;43.00
20492;DHT22;10404;51.468;6.762;2023-06-26T10:19:29;29.50;43.10
20492;DHT22;10404;51.468;6.762;2023-06-26T10:21:57;29.70;43.00
20492;DHT22;10404;51.468;6.762;2023-06-26T10:24:23;29.70;42.90
20492;DHT22;10404;51.468;6.762;2023-06-26T10:26:52;29.90;42.50
20492;DHT22;10404;51.468;6.762;2023-06-26T10:29:21;29.90;42.60
20492;DHT22;10404;51.468;6.762;2023-06-26T10:31:51;30.00;42.40
20492;DHT22;10404;51.468;6.762;2023-06-26T10:34:18;30.00;42.50
20492;DHT22;10404;51.468;6.762;2023-06-26T10:36:44;29.90;42.60
20492;DHT22;10404;51.468;6.762;2023-06-26T10:39:09;29.90;42.50
20492;DHT22;10404;51.468;6.762;2023-06-26T10:41:40;29.90;42.40
20492;DHT22;10404;51.468;6.762;2023-06-26T10:44:08;30.00;42.30
20492;DHT22;10404;51.468;6.762;2023-06-26T10:46:54;30.00;41.90
20492;DHT22;10404;51.468;6.762;2023-06-26T10:49:21;30.10;42.00
20492;DHT22;10404;51.468;6.762;2023-06-26T10:51:50;30.20;41.80
20492;DHT22;10404;51.468;6.762;2023-06-26T10:54:17;30.20;41.90
20492;DHT22;10404;51.468;6.762;2023-06-26T11:01:45;30.20;41.80
20492;DHT22;10404;51.468;6.762;2023-06-26T11:04:12;30.10;41.40
20492;DHT22;10404;51.468;6.762;2023-06-26T11:06:40;30.00;41.40
20492;DHT22;10404;51.468;6.762;2023-06-26T11:09:09;30.00;41.30
20492;DHT22;10404;51.468;6.762;2023-06-26T11:14:18;30.00;41.10
20492;DHT22;10404;51.468;6.762;2023-06-26T11:16:44;30.00;41.00
20492;DHT22;10404;51.468;6.762;2023-06-26T11:19:10;30.00;40.40
20492;DHT22;10404;51.468;6.762;2023-06-26T11:21:39;30.00;40.50
20492;DHT22;10404;51.468;6.762;2023-06-26T11:24:06;30.00;40.40
20492;DHT22;10404;51.468;6.762;2023-06-26T11:26:41;30.00;40.20
20492;DHT22;10404;51.468;6.762;2023-06-26T11:29:08;30.00;40.10
20492;DHT22;10404;51.468;6.762;2023-06-26T11:31:35;30.00;40.20
20492;DHT22;10404;51.468;6.762;2023-06-26T11:34:04;30.00;39.90
20492;DHT22;10404;51.468;6.762;2023-06-26T11:36:30;30.00;40.00
20492;DHT22;10404;51.468;6.762;2023-06-26T11:38:57;30.00;39.90
20492;DHT22;10404;51.468;6.762;2023-06-26T11:41:25;30.10;39.50
20492;DHT22;10404;51.468;6.762;2023-06-26T11:43:52;30.10;39.20
20492;DHT22;10404;51.468;6.762;2023-06-26T11:46:19;30.20;38.70
20492;DHT22;10404;51.468;6.762;2023-06-26T11:48:45;30.30;38.40
20492;DHT22;10404;51.468;6.762;2023-06-26T11:51:15;30.30;38.00
20492;DHT22;10404;51.468;6.762;2023-06-26T11:53:47;30.30;37.80
20492;DHT22;10404;51.468;6.762;2023-06-26T11:56:17;30.30;37.80
20492;DHT22;10404;51.468;6.762;2023-06-26T12:01:21;30.40;37.90
20492;DHT22;10404;51.468;6.762;2023-06-26T12:03:48;30.30;37.90
20492;DHT22;10404;51.468;6.762;2023-06-26T12:06:14;30.30;37.80
20492;DHT22;10404;51.468;6.762;2023-06-26T12:08:40;30.30;37.70
20492;DHT22;10404;51.468;6.762;2023-06-26T12:11:06;30.40;37.80
20492;DHT22;10404;51.468;6.762;2023-06-26T12:13:32;30.50;37.50
20492;DHT22;10404;51.468;6.762;2023-06-26T12:15:58;30.50;37.00
20492;DHT22;10404;51.468;6.762;2023-06-26T12:18:24;30.50;36.70
20492;DHT22;10404;51.468;6.762;2023-06-26T12:20:51;30.50;36.70
20492;DHT22;10404;51.468;6.762;2023-06-26T12:23:17;30.60;36.60
20492;DHT22;10404;51.468;6.762;2023-06-26T12:25:43;30.60;36.60
20492;DHT22;10404;51.468;6.762;2023-06-26T12:28:18;30.60;36.60
20492;DHT22;10404;51.468;6.762;2023-06-26T12:31:11;30.60;36.60
20492;DHT22;10404;51.468;6.762;2023-06-26T12:33:33;30.60;36.20
20492;DHT22;10404;51.468;6.762;2023-06-26T12:35:59;30.60;35.80
20492;DHT22;10404;51.468;6.762;2023-06-26T12:38:33;30.60;36.10
20492;DHT22;10404;51.468;6.762;2023-06-26T12:40:58;30.70;36.30
20492;DHT22;10404;51.468;6.762;2023-06-26T12:43:26;30.70;35.80
20492;DHT22;10404;51.468;6.762;2023-06-26T12:45:55;30.70;35.50
20492;DHT22;10404;51.468;6.762;2023-06-26T12:48:22;30.80;35.70
20492;DHT22;10404;51.468;6.762;2023-06-26T12:50:47;30.80;35.50
20492;DHT22;10404;51.468;6.762;2023-06-26T12:53:15;30.80;35.50
20492;DHT22;10404;51.468;6.762;2023-06-26T12:55:41;30.90;35.30
20492;DHT22;10404;51.468;6.762;2023-06-26T12:58:07;30.90;35.40
20492;DHT22;10404;51.468;6.762;2023-06-26T13:00:32;31.00;35.20
20492;DHT22;10404;51.468;6.762;2023-06-26T13:02:59;31.00;35.10
20492;DHT22;10404;51.468;6.762;2023-06-26T13:05:24;31.00;35.00
20492;DHT22;10404;51.468;6.762;2023-06-26T13:07:50;31.00;35.10
20492;DHT22;10404;51.468;6.762;2023-06-26T13:10:16;31.10;34.90
20492;DHT22;10404;51.468;6.762;2023-06-26T13:12:42;31.10;35.00
20492;DHT22;10404;51.468;6.762;2023-06-26T13:15:08;31.20;34.80
20492;DHT22;10404;51.468;6.762;2023-06-26T13:17:34;31.20;35.00
20492;DHT22;10404;51.468;6.762;2023-06-26T13:20:00;31.30;35.00
20492;DHT22;10404;51.468;6.762;2023-06-26T13:22:25;31.30;35.00
20492;DHT22;10404;51.468;6.762;2023-06-26T13:24:51;31.30;34.90
20492;DHT22;10404;51.468;6.762;2023-06-26T13:27:16;31.40;34.70
20492;DHT22;10404;51.468;6.762;2023-06-26T13:29:42;31.40;34.70
20492;DHT22;10404;51.468;6.762;2023-06-26T13:32:08;31.40;34.60
20492;DHT22;10404;51.468;6.762;2023-06-26T13:34:33;31.50;34.60
20492;DHT22;10404;51.468;6.762;2023-06-26T13:36:59;31.50;34.70
20492;DHT22;10404;51.468;6.762;2023-06-26T13:39:27;31.50;34.30
20492;DHT22;10404;51.468;6.762;2023-06-26T13:41:53;31.60;34.60
20492;DHT22;10404;51.468;6.762;2023-06-26T13:44:19;31.50;34.20
20492;DHT22;10404;51.468;6.762;2023-06-26T13:46:44;31.50;34.00
20492;DHT22;10404;51.468;6.762;2023-06-26T13:49:10;31.60;34.00
20492;DHT22;10404;51.468;6.762;2023-06-26T13:51:35;31.60;33.90
20492;DHT22;10404;51.468;6.762;2023-06-26T13:54:01;31.60;34.10
20492;DHT22;10404;51.468;6.762;2023-06-26T13:56:27;31.60;34.20
20492;DHT22;10404;51.468;6.762;2023-06-26T13:58:56;31.60;33.80
20492;DHT22;10404;51.468;6.762;2023-06-26T14:01:21;31.70;33.90
20492;DHT22;10404;51.468;6.762;2023-06-26T14:03:47;31.70;33.70
20492;DHT22;10404;51.468;6.762;2023-06-26T14:06:13;31.70;33.40
20492;DHT22;10404;51.468;6.762;2023-06-26T14:08:38;31.70;33.40
20492;DHT22;10404;51.468;6.762;2023-06-26T14:11:04;31.70;33.30
20492;DHT22;10404;51.468;6.762;2023-06-26T14:13:30;31.70;33.40
20492;DHT22;10404;51.468;6.762;2023-06-26T14:15:55;31.70;33.20
20492;DHT22;10404;51.468;6.762;2023-06-26T14:18:21;31.70;33.00
20492;DHT22;10404;51.468;6.762;2023-06-26T14:20:49;31.80;33.00
20492;DHT22;10404;51.468;6.762;2023-06-26T14:23:14;31.80;33.20
20492;DHT22;10404;51.468;6.762;2023-06-26T14:25:40;31.90;33.10
20492;DHT22;10404;51.468;6.762;2023-06-26T14:28:05;31.90;33.20
20492;DHT22;10404;51.468;6.762;2023-06-26T14:30:31;31.90;33.20
20492;DHT22;10404;51.468;6.762;2023-06-26T14:32:57;32.00;33.20
20492;DHT22;10404;51.468;6.762;2023-06-26T14:35:22;32.00;33.20
20492;DHT22;10404;51.468;6.762;2023-06-26T14:37:48;32.00;33.10
20492;DHT22;10404;51.468;6.762;2023-06-26T14:40:14;32.00;33.00
20492;DHT22;10404;51.468;6.762;2023-06-26T14:42:39;32.00;33.20
20492;DHT22;10404;51.468;6.762;2023-06-26T14:45:05;32.00;32.80
20492;DHT22;10404;51.468;6.762;2023-06-26T14:47:31;32.10;32.70
20492;DHT22;10404;51.468;6.762;2023-06-26T14:49:57;32.10;32.90
20492;DHT22;10404;51.468;6.762;2023-06-26T14:52:23;32.10;32.70
20492;DHT22;10404;51.468;6.762;2023-06-26T14:54:48;32.20;32.80
20492;DHT22;10404;51.468;6.762;2023-06-26T14:57:14;32.20;32.80
20492;DHT22;10404;51.468;6.762;2023-06-26T14:59:39;32.20;32.70
20492;DHT22;10404;51.468;6.762;2023-06-26T15:02:05;32.20;32.70
20492;DHT22;10404;51.468;6.762;2023-06-26T15:04:32;32.20;32.60
20492;DHT22;10404;51.468;6.762;2023-06-26T15:06:58;32.20;32.50
20492;DHT22;10404;51.468;6.762;2023-06-26T15:09:23;32.20;32.50
20492;DHT22;10404;51.468;6.762;2023-06-26T15:11:49;32.20;32.70
20492;DHT22;10404;51.468;6.762;2023-06-26T15:14:14;32.20;32.80
20492;DHT22;10404;51.468;6.762;2023-06-26T15:16:40;32.20;32.90
20492;DHT22;10404;51.468;6.762;2023-06-26T15:19:06;32.10;32.90
20492;DHT22;10404;51.468;6.762;2023-06-26T15:21:31;32.20;32.90
20492;DHT22;10404;51.468;6.762;2023-06-26T15:23:57;32.20;33.00
20492;DHT22;10404;51.468;6.762;2023-06-26T15:26:22;32.10;33.00
20492;DHT22;10404;51.468;6.762;2023-06-26T15:28:48;32.10;32.70
20492;DHT22;10404;51.468;6.762;2023-06-26T15:31:14;32.00;32.70
20492;DHT22;10404;51.468;6.762;2023-06-26T15:33:39;32.00;32.80
20492;DHT22;10404;51.468;6.762;2023-06-26T15:36:05;32.00;32.80
20492;DHT22;10404;51.468;6.762;2023-06-26T15:38:31;32.00;32.70
20492;DHT22;10404;51.468;6.762;2023-06-26T15:40:56;32.00;32.90
20492;DHT22;10404;51.468;6.762;2023-06-26T15:43:22;32.00;32.30
20492;DHT22;10404;51.468;6.762;2023-06-26T15:45:48;32.00;32.60